Main page
METAR-TAF:

METAR-TAF

Airports :

Lankaran International Airport

Lankaran, Azerbaijan

latitude: 38-44-47N, longitude: 048-49-04E, elevation: 9 m

Current weather observation

The report was made 1 hour and 6 minutes ago, at 07:00 UTC
Wind 5 kt from the East
Temperature 32°C
Humidity 23%
Pressure 1013 hPa
Visibility 10 km or more

METAR: UBBL 250700Z 08005KT 9999 NSC 32/08 Q1013 R33/CLRD// NOSIG RMK MT OP

Time: 12:06 (08:06 UTC)

Forecast

The report was made 2 hours and 57 minutes ago, at 05:09 UTC
Forecast valid from 25 at 06 UTC to 26 at 06 UTC
Wind 6 kt from the East
Visibility 10 km or more
Temporary
from 25 at 06 UTC to 25 at 12 UTC
Wind 4 kt from variable directions
Scattered clouds at a height of 3000 ft
Temporary
from 25 at 12 UTC to 25 at 21 UTC
Few clouds at a height of 5000 ft, Cumulonimbus.
Broken clouds at a height of 8000 ft

TAF: UBBL 250509Z 2506/2606 09006KT 9999 NSC TX32/2511Z TN18/2601Z TEMPO 2506/2512 VRB04KT SCT030 TEMPO 2512/2521 FEW050CB BKN080

Weather observations and forecasts of more than 4000 airports (METAR and TAF reports).

The available stations are represented by yellow and red dots on the map.

Hover mouse over dot to see the name of the station.

Then click to see weather observations and forecasts.

To change the map : click on the green buttons with a black cross to zoom in, on the green button with a dash to zoom out, or on the green arrows for adjacent maps.


METAR-TAF: